sensor_id;sensor_type;location;lat;lon;timestamp;P1;durP1;ratioP1;P2;durP2;ratioP2
36359;SDS011;22388;52.432;20.662;2024-01-11T00:00:06;160.13;;;50.20;;
36359;SDS011;22388;52.432;20.662;2024-01-11T00:02:32;164.88;;;52.17;;
36359;SDS011;22388;52.432;20.662;2024-01-11T00:04:57;161.15;;;49.75;;
36359;SDS011;22388;52.432;20.662;2024-01-11T00:07:22;145.30;;;48.35;;
36359;SDS011;22388;52.432;20.662;2024-01-11T00:09:48;142.82;;;48.30;;
36359;SDS011;22388;52.432;20.662;2024-01-11T00:12:13;143.18;;;47.17;;
36359;SDS011;22388;52.432;20.662;2024-01-11T00:14:39;142.25;;;47.47;;
36359;SDS011;22388;52.432;20.662;2024-01-11T00:17:05;139.35;;;47.38;;
36359;SDS011;22388;52.432;20.662;2024-01-11T00:19:30;142.00;;;48.75;;
36359;SDS011;22388;52.432;20.662;2024-01-11T00:21:56;148.75;;;47.97;;
36359;SDS011;22388;52.432;20.662;2024-01-11T00:24:22;129.35;;;44.85;;
36359;SDS011;22388;52.432;20.662;2024-01-11T00:26:47;135.60;;;47.33;;
36359;SDS011;22388;52.432;20.662;2024-01-11T00:29:12;135.48;;;47.15;;
36359;SDS011;22388;52.432;20.662;2024-01-11T00:31:38;140.35;;;47.45;;
36359;SDS011;22388;52.432;20.662;2024-01-11T00:34:03;145.98;;;49.67;;
36359;SDS011;22388;52.432;20.662;2024-01-11T00:36:29;137.00;;;47.30;;
36359;SDS011;22388;52.432;20.662;2024-01-11T00:38:54;138.50;;;46.08;;
36359;SDS011;22388;52.432;20.662;2024-01-11T00:41:20;138.88;;;45.70;;
36359;SDS011;22388;52.432;20.662;2024-01-11T00:43:46;136.10;;;47.28;;
36359;SDS011;22388;52.432;20.662;2024-01-11T00:46:11;138.93;;;47.33;;
36359;SDS011;22388;52.432;20.662;2024-01-11T00:48:37;146.35;;;52.40;;
36359;SDS011;22388;52.432;20.662;2024-01-11T00:51:05;145.68;;;49.85;;
36359;SDS011;22388;52.432;20.662;2024-01-11T00:53:30;136.70;;;49.42;;
36359;SDS011;22388;52.432;20.662;2024-01-11T00:55:59;147.23;;;46.42;;
36359;SDS011;22388;52.432;20.662;2024-01-11T00:58:25;148.85;;;51.55;;
36359;SDS011;22388;52.432;20.662;2024-01-11T01:00:50;137.65;;;47.47;;
36359;SDS011;22388;52.432;20.662;2024-01-11T01:03:18;155.52;;;50.22;;
36359;SDS011;22388;52.432;20.662;2024-01-11T01:05:43;151.25;;;49.08;;
36359;SDS011;22388;52.432;20.662;2024-01-11T01:08:09;150.70;;;49.72;;
36359;SDS011;22388;52.432;20.662;2024-01-11T01:10:35;152.90;;;50.47;;
36359;SDS011;22388;52.432;20.662;2024-01-11T01:13:00;151.70;;;47.95;;
36359;SDS011;22388;52.432;20.662;2024-01-11T01:15:25;161.48;;;50.80;;
36359;SDS011;22388;52.432;20.662;2024-01-11T01:17:51;164.18;;;47.97;;
36359;SDS011;22388;52.432;20.662;2024-01-11T01:20:17;156.55;;;48.53;;
36359;SDS011;22388;52.432;20.662;2024-01-11T01:22:42;157.02;;;49.47;;
36359;SDS011;22388;52.432;20.662;2024-01-11T01:25:08;171.68;;;50.83;;
36359;SDS011;22388;52.432;20.662;2024-01-11T01:27:33;151.70;;;49.67;;
36359;SDS011;22388;52.432;20.662;2024-01-11T01:29:59;155.18;;;48.67;;
36359;SDS011;22388;52.432;20.662;2024-01-11T01:32:24;159.32;;;48.72;;
36359;SDS011;22388;52.432;20.662;2024-01-11T01:34:49;156.32;;;51.17;;
36359;SDS011;22388;52.432;20.662;2024-01-11T01:37:15;147.82;;;47.13;;
36359;SDS011;22388;52.432;20.662;2024-01-11T01:39:40;147.23;;;50.03;;
36359;SDS011;22388;52.432;20.662;2024-01-11T01:42:06;154.60;;;47.63;;
36359;SDS011;22388;52.432;20.662;2024-01-11T01:44:33;147.73;;;46.35;;
36359;SDS011;22388;52.432;20.662;2024-01-11T01:46:58;156.15;;;47.80;;
36359;SDS011;22388;52.432;20.662;2024-01-11T01:49:24;146.07;;;49.08;;
36359;SDS011;22388;52.432;20.662;2024-01-11T01:51:51;143.02;;;47.95;;
36359;SDS011;22388;52.432;20.662;2024-01-11T01:54:17;145.40;;;47.72;;
36359;SDS011;22388;52.432;20.662;2024-01-11T01:56:43;134.38;;;45.55;;
36359;SDS011;22388;52.432;20.662;2024-01-11T01:59:09;145.63;;;46.95;;
36359;SDS011;22388;52.432;20.662;2024-01-11T02:01:35;138.68;;;47.28;;
36359;SDS011;22388;52.432;20.662;2024-01-11T02:04:01;145.93;;;46.50;;
36359;SDS011;22388;52.432;20.662;2024-01-11T02:06:26;146.20;;;47.30;;
36359;SDS011;22388;52.432;20.662;2024-01-11T02:08:54;141.18;;;46.35;;
36359;SDS011;22388;52.432;20.662;2024-01-11T02:11:20;156.40;;;49.97;;
36359;SDS011;22388;52.432;20.662;2024-01-11T02:13:46;141.32;;;47.22;;
36359;SDS011;22388;52.432;20.662;2024-01-11T02:16:13;146.85;;;45.38;;
36359;SDS011;22388;52.432;20.662;2024-01-11T02:18:38;146.75;;;45.38;;
36359;SDS011;22388;52.432;20.662;2024-01-11T02:21:05;147.27;;;47.92;;
36359;SDS011;22388;52.432;20.662;2024-01-11T02:23:31;155.00;;;47.80;;
36359;SDS011;22388;52.432;20.662;2024-01-11T02:25:57;151.15;;;46.95;;
36359;SDS011;22388;52.432;20.662;2024-01-11T02:28:22;137.02;;;48.17;;
36359;SDS011;22388;52.432;20.662;2024-01-11T02:30:48;151.63;;;47.65;;
36359;SDS011;22388;52.432;20.662;2024-01-11T02:33:13;142.10;;;45.20;;
36359;SDS011;22388;52.432;20.662;2024-01-11T02:35:41;134.77;;;46.58;;
36359;SDS011;22388;52.432;20.662;2024-01-11T02:38:08;138.38;;;45.42;;
36359;SDS011;22388;52.432;20.662;2024-01-11T02:40:33;144.23;;;46.13;;
36359;SDS011;22388;52.432;20.662;2024-01-11T02:43:06;132.07;;;43.28;;
36359;SDS011;22388;52.432;20.662;2024-01-11T02:45:32;118.78;;;41.40;;
36359;SDS011;22388;52.432;20.662;2024-01-11T02:47:57;125.22;;;41.72;;
36359;SDS011;22388;52.432;20.662;2024-01-11T02:50:22;123.75;;;43.20;;
36359;SDS011;22388;52.432;20.662;2024-01-11T02:52:48;125.78;;;43.72;;
36359;SDS011;22388;52.432;20.662;2024-01-11T02:55:13;109.22;;;38.47;;
36359;SDS011;22388;52.432;20.662;2024-01-11T02:57:39;104.13;;;35.88;;
36359;SDS011;22388;52.432;20.662;2024-01-11T03:00:04;101.53;;;35.47;;
36359;SDS011;22388;52.432;20.662;2024-01-11T03:02:30;103.75;;;36.08;;
36359;SDS011;22388;52.432;20.662;2024-01-11T03:04:56;105.18;;;35.15;;
36359;SDS011;22388;52.432;20.662;2024-01-11T03:07:21;91.60;;;33.65;;
36359;SDS011;22388;52.432;20.662;2024-01-11T03:09:47;84.82;;;31.67;;
36359;SDS011;22388;52.432;20.662;2024-01-11T03:12:12;93.68;;;31.08;;
36359;SDS011;22388;52.432;20.662;2024-01-11T03:14:37;89.15;;;32.35;;
36359;SDS011;22388;52.432;20.662;2024-01-11T03:17:03;90.57;;;33.13;;
36359;SDS011;22388;52.432;20.662;2024-01-11T03:19:29;92.10;;;32.88;;
36359;SDS011;22388;52.432;20.662;2024-01-11T03:21:55;73.30;;;27.70;;
36359;SDS011;22388;52.432;20.662;2024-01-11T03:24:20;82.28;;;31.05;;
36359;SDS011;22388;52.432;20.662;2024-01-11T03:26:47;84.00;;;30.20;;
36359;SDS011;22388;52.432;20.662;2024-01-11T03:29:12;81.43;;;30.77;;
36359;SDS011;22388;52.432;20.662;2024-01-11T03:31:38;81.70;;;30.05;;
36359;SDS011;22388;52.432;20.662;2024-01-11T03:34:07;75.10;;;28.15;;
36359;SDS011;22388;52.432;20.662;2024-01-11T03:36:32;81.97;;;29.40;;
36359;SDS011;22388;52.432;20.662;2024-01-11T03:38:57;84.18;;;28.75;;
36359;SDS011;22388;52.432;20.662;2024-01-11T03:41:23;73.15;;;28.40;;
36359;SDS011;22388;52.432;20.662;2024-01-11T03:43:49;84.05;;;31.48;;
36359;SDS011;22388;52.432;20.662;2024-01-11T03:46:14;81.15;;;27.75;;
36359;SDS011;22388;52.432;20.662;2024-01-11T03:48:40;78.50;;;29.08;;
36359;SDS011;22388;52.432;20.662;2024-01-11T03:51:05;67.07;;;24.75;;
36359;SDS011;22388;52.432;20.662;2024-01-11T03:53:34;71.47;;;25.63;;
36359;SDS011;22388;52.432;20.662;2024-01-11T03:55:59;79.55;;;28.67;;
36359;SDS011;22388;52.432;20.662;2024-01-11T03:58:25;81.95;;;28.85;;
36359;SDS011;22388;52.432;20.662;2024-01-11T04:00:51;100.93;;;32.97;;
36359;SDS011;22388;52.432;20.662;2024-01-11T04:03:17;108.40;;;33.58;;
36359;SDS011;22388;52.432;20.662;2024-01-11T04:05:42;99.95;;;32.72;;
36359;SDS011;22388;52.432;20.662;2024-01-11T04:08:08;105.20;;;33.70;;
36359;SDS011;22388;52.432;20.662;2024-01-11T04:10:33;111.18;;;36.05;;
36359;SDS011;22388;52.432;20.662;2024-01-11T04:12:59;115.90;;;37.33;;
36359;SDS011;22388;52.432;20.662;2024-01-11T04:15:25;119.57;;;36.92;;
36359;SDS011;22388;52.432;20.662;2024-01-11T04:17:50;113.60;;;36.83;;
36359;SDS011;22388;52.432;20.662;2024-01-11T04:20:16;112.68;;;36.35;;
36359;SDS011;22388;52.432;20.662;2024-01-11T04:22:41;115.00;;;34.92;;
36359;SDS011;22388;52.432;20.662;2024-01-11T04:25:07;121.43;;;40.15;;
36359;SDS011;22388;52.432;20.662;2024-01-11T04:27:32;112.35;;;37.00;;
36359;SDS011;22388;52.432;20.662;2024-01-11T04:29:57;106.35;;;35.78;;
36359;SDS011;22388;52.432;20.662;2024-01-11T04:32:23;119.10;;;37.08;;
36359;SDS011;22388;52.432;20.662;2024-01-11T04:34:48;117.03;;;35.03;;
36359;SDS011;22388;52.432;20.662;2024-01-11T04:37:14;115.18;;;36.47;;
36359;SDS011;22388;52.432;20.662;2024-01-11T04:39:39;111.65;;;35.58;;
36359;SDS011;22388;52.432;20.662;2024-01-11T04:42:05;116.30;;;37.47;;
36359;SDS011;22388;52.432;20.662;2024-01-11T04:44:30;117.53;;;37.20;;
36359;SDS011;22388;52.432;20.662;2024-01-11T04:46:56;106.20;;;36.30;;
36359;SDS011;22388;52.432;20.662;2024-01-11T04:49:22;108.43;;;36.38;;
36359;SDS011;22388;52.432;20.662;2024-01-11T04:51:47;115.10;;;36.83;;
36359;SDS011;22388;52.432;20.662;2024-01-11T04:54:13;121.20;;;37.88;;
36359;SDS011;22388;52.432;20.662;2024-01-11T04:56:38;105.97;;;37.92;;
36359;SDS011;22388;52.432;20.662;2024-01-11T04:59:03;121.93;;;37.75;;
36359;SDS011;22388;52.432;20.662;2024-01-11T05:01:29;117.47;;;38.47;;
36359;SDS011;22388;52.432;20.662;2024-01-11T05:03:54;106.38;;;35.55;;
36359;SDS011;22388;52.432;20.662;2024-01-11T05:06:21;98.28;;;34.53;;
36359;SDS011;22388;52.432;20.662;2024-01-11T05:08:47;102.07;;;33.78;;
36359;SDS011;22388;52.432;20.662;2024-01-11T05:11:16;106.05;;;34.60;;
36359;SDS011;22388;52.432;20.662;2024-01-11T05:13:42;100.05;;;33.75;;
36359;SDS011;22388;52.432;20.662;2024-01-11T05:16:15;99.07;;;34.25;;
36359;SDS011;22388;52.432;20.662;2024-01-11T05:18:41;90.35;;;31.48;;
36359;SDS011;22388;52.432;20.662;2024-01-11T05:21:06;84.35;;;31.45;;
36359;SDS011;22388;52.432;20.662;2024-01-11T05:23:31;92.22;;;31.58;;
36359;SDS011;22388;52.432;20.662;2024-01-11T05:25:57;93.53;;;31.40;;
36359;SDS011;22388;52.432;20.662;2024-01-11T05:28:22;92.13;;;31.88;;
36359;SDS011;22388;52.432;20.662;2024-01-11T05:30:47;84.10;;;29.58;;
36359;SDS011;22388;52.432;20.662;2024-01-11T05:33:13;77.75;;;26.75;;
36359;SDS011;22388;52.432;20.662;2024-01-11T05:35:38;83.25;;;28.98;;
36359;SDS011;22388;52.432;20.662;2024-01-11T05:38:04;82.38;;;28.95;;
36359;SDS011;22388;52.432;20.662;2024-01-11T05:40:29;84.20;;;28.08;;
36359;SDS011;22388;52.432;20.662;2024-01-11T05:42:55;80.35;;;27.40;;
36359;SDS011;22388;52.432;20.662;2024-01-11T05:45:21;87.40;;;27.58;;
36359;SDS011;22388;52.432;20.662;2024-01-11T05:47:46;79.32;;;26.05;;
36359;SDS011;22388;52.432;20.662;2024-01-11T05:50:12;78.80;;;29.05;;
36359;SDS011;22388;52.432;20.662;2024-01-11T05:52:38;77.68;;;26.80;;
36359;SDS011;22388;52.432;20.662;2024-01-11T05:55:03;80.97;;;28.02;;
36359;SDS011;22388;52.432;20.662;2024-01-11T05:57:30;79.63;;;26.75;;
36359;SDS011;22388;52.432;20.662;2024-01-11T05:59:55;76.93;;;26.83;;
36359;SDS011;22388;52.432;20.662;2024-01-11T06:02:21;75.15;;;27.15;;
36359;SDS011;22388;52.432;20.662;2024-01-11T06:04:47;72.95;;;26.00;;
36359;SDS011;22388;52.432;20.662;2024-01-11T06:07:14;78.00;;;28.60;;
36359;SDS011;22388;52.432;20.662;2024-01-11T06:09:39;73.72;;;26.17;;
36359;SDS011;22388;52.432;20.662;2024-01-11T06:12:05;76.15;;;26.55;;
36359;SDS011;22388;52.432;20.662;2024-01-11T06:14:30;79.70;;;26.58;;
36359;SDS011;22388;52.432;20.662;2024-01-11T06:16:56;73.38;;;25.92;;
36359;SDS011;22388;52.432;20.662;2024-01-11T06:19:22;71.43;;;28.35;;
36359;SDS011;22388;52.432;20.662;2024-01-11T06:21:47;72.53;;;26.88;;
36359;SDS011;22388;52.432;20.662;2024-01-11T06:24:13;79.43;;;28.77;;
36359;SDS011;22388;52.432;20.662;2024-01-11T06:26:38;75.93;;;28.98;;
36359;SDS011;22388;52.432;20.662;2024-01-11T06:29:04;83.70;;;27.92;;
36359;SDS011;22388;52.432;20.662;2024-01-11T06:31:29;86.47;;;26.58;;
36359;SDS011;22388;52.432;20.662;2024-01-11T06:33:54;86.47;;;28.30;;
36359;SDS011;22388;52.432;20.662;2024-01-11T06:36:20;67.45;;;27.10;;
36359;SDS011;22388;52.432;20.662;2024-01-11T06:38:45;80.50;;;27.73;;
36359;SDS011;22388;52.432;20.662;2024-01-11T06:41:10;83.07;;;28.10;;
36359;SDS011;22388;52.432;20.662;2024-01-11T06:43:36;79.22;;;27.73;;
36359;SDS011;22388;52.432;20.662;2024-01-11T06:46:04;89.43;;;27.63;;
36359;SDS011;22388;52.432;20.662;2024-01-11T06:48:30;79.13;;;25.13;;
36359;SDS011;22388;52.432;20.662;2024-01-11T06:50:56;72.90;;;25.15;;
36359;SDS011;22388;52.432;20.662;2024-01-11T06:53:21;77.85;;;26.65;;
36359;SDS011;22388;52.432;20.662;2024-01-11T06:55:46;77.68;;;25.33;;
36359;SDS011;22388;52.432;20.662;2024-01-11T06:58:13;73.47;;;25.83;;
36359;SDS011;22388;52.432;20.662;2024-01-11T07:00:38;72.97;;;24.60;;
36359;SDS011;22388;52.432;20.662;2024-01-11T07:03:08;79.38;;;25.40;;
36359;SDS011;22388;52.432;20.662;2024-01-11T07:05:34;79.53;;;27.45;;
36359;SDS011;22388;52.432;20.662;2024-01-11T07:07:59;81.63;;;27.10;;
36359;SDS011;22388;52.432;20.662;2024-01-11T07:10:24;82.82;;;26.85;;
36359;SDS011;22388;52.432;20.662;2024-01-11T07:12:49;83.88;;;26.10;;
36359;SDS011;22388;52.432;20.662;2024-01-11T07:15:15;79.40;;;25.15;;
36359;SDS011;22388;52.432;20.662;2024-01-11T07:17:40;78.43;;;27.02;;
36359;SDS011;22388;52.432;20.662;2024-01-11T07:20:06;81.93;;;27.63;;
36359;SDS011;22388;52.432;20.662;2024-01-11T07:22:31;88.60;;;26.73;;
36359;SDS011;22388;52.432;20.662;2024-01-11T07:24:57;97.53;;;28.70;;
36359;SDS011;22388;52.432;20.662;2024-01-11T07:27:22;75.25;;;27.15;;
36359;SDS011;22388;52.432;20.662;2024-01-11T07:29:47;75.28;;;23.17;;
36359;SDS011;22388;52.432;20.662;2024-01-11T07:32:12;69.00;;;25.05;;
36359;SDS011;22388;52.432;20.662;2024-01-11T07:34:38;77.70;;;25.13;;
36359;SDS011;22388;52.432;20.662;2024-01-11T07:37:03;73.45;;;24.27;;
36359;SDS011;22388;52.432;20.662;2024-01-11T07:39:29;81.65;;;24.95;;
36359;SDS011;22388;52.432;20.662;2024-01-11T07:41:56;70.18;;;26.35;;
36359;SDS011;22388;52.432;20.662;2024-01-11T07:44:21;81.18;;;26.58;;
36359;SDS011;22388;52.432;20.662;2024-01-11T07:46:46;88.28;;;25.95;;
36359;SDS011;22388;52.432;20.662;2024-01-11T07:49:12;77.93;;;25.75;;
36359;SDS011;22388;52.432;20.662;2024-01-11T07:51:38;85.55;;;27.20;;
36359;SDS011;22388;52.432;20.662;2024-01-11T07:54:04;84.78;;;28.25;;
36359;SDS011;22388;52.432;20.662;2024-01-11T07:56:30;93.32;;;29.30;;
36359;SDS011;22388;52.432;20.662;2024-01-11T07:58:55;80.68;;;27.05;;
36359;SDS011;22388;52.432;20.662;2024-01-11T08:01:20;80.07;;;25.50;;
36359;SDS011;22388;52.432;20.662;2024-01-11T08:03:46;90.63;;;27.95;;
36359;SDS011;22388;52.432;20.662;2024-01-11T08:06:12;82.82;;;28.15;;
36359;SDS011;22388;52.432;20.662;2024-01-11T08:08:37;80.43;;;27.27;;
36359;SDS011;22388;52.432;20.662;2024-01-11T08:11:09;78.63;;;25.98;;
36359;SDS011;22388;52.432;20.662;2024-01-11T08:13:35;90.68;;;26.83;;
36359;SDS011;22388;52.432;20.662;2024-01-11T08:16:02;84.18;;;27.30;;
36359;SDS011;22388;52.432;20.662;2024-01-11T08:18:30;87.35;;;27.17;;
36359;SDS011;22388;52.432;20.662;2024-01-11T08:20:56;92.80;;;30.15;;
36359;SDS011;22388;52.432;20.662;2024-01-11T08:23:21;84.28;;;27.20;;
36359;SDS011;22388;52.432;20.662;2024-01-11T08:25:47;92.82;;;28.13;;
36359;SDS011;22388;52.432;20.662;2024-01-11T08:28:12;91.45;;;27.33;;
36359;SDS011;22388;52.432;20.662;2024-01-11T08:30:37;98.97;;;30.23;;
36359;SDS011;22388;52.432;20.662;2024-01-11T08:33:03;101.72;;;32.03;;
36359;SDS011;22388;52.432;20.662;2024-01-11T08:35:29;108.93;;;32.38;;
36359;SDS011;22388;52.432;20.662;2024-01-11T08:37:55;105.60;;;32.40;;
36359;SDS011;22388;52.432;20.662;2024-01-11T08:40:20;93.70;;;31.35;;
36359;SDS011;22388;52.432;20.662;2024-01-11T08:42:46;98.53;;;31.23;;
36359;SDS011;22388;52.432;20.662;2024-01-11T08:45:11;98.30;;;30.88;;
36359;SDS011;22388;52.432;20.662;2024-01-11T08:47:43;86.10;;;30.05;;
36359;SDS011;22388;52.432;20.662;2024-01-11T08:50:11;95.72;;;30.08;;
36359;SDS011;22388;52.432;20.662;2024-01-11T08:52:37;101.07;;;33.30;;
36359;SDS011;22388;52.432;20.662;2024-01-11T08:55:04;99.45;;;31.23;;
36359;SDS011;22388;52.432;20.662;2024-01-11T08:57:30;100.30;;;31.55;;
36359;SDS011;22388;52.432;20.662;2024-01-11T08:59:55;99.95;;;31.60;;
36359;SDS011;22388;52.432;20.662;2024-01-11T09:02:21;93.00;;;28.90;;
36359;SDS011;22388;52.432;20.662;2024-01-11T09:04:46;91.13;;;30.17;;
36359;SDS011;22388;52.432;20.662;2024-01-11T09:07:12;93.97;;;32.10;;
36359;SDS011;22388;52.432;20.662;2024-01-11T09:09:38;100.30;;;30.75;;
36359;SDS011;22388;52.432;20.662;2024-01-11T09:12:04;99.65;;;30.20;;
36359;SDS011;22388;52.432;20.662;2024-01-11T09:14:29;103.03;;;31.33;;
36359;SDS011;22388;52.432;20.662;2024-01-11T09:16:55;92.15;;;29.92;;
36359;SDS011;22388;52.432;20.662;2024-01-11T09:19:21;83.28;;;28.73;;
36359;SDS011;22388;52.432;20.662;2024-01-11T09:21:46;85.47;;;27.13;;
36359;SDS011;22388;52.432;20.662;2024-01-11T09:24:11;88.70;;;28.70;;
36359;SDS011;22388;52.432;20.662;2024-01-11T09:26:37;84.60;;;30.17;;
36359;SDS011;22388;52.432;20.662;2024-01-11T09:29:02;86.55;;;28.83;;
36359;SDS011;22388;52.432;20.662;2024-01-11T09:31:28;84.68;;;27.42;;
36359;SDS011;22388;52.432;20.662;2024-01-11T09:33:54;86.00;;;27.73;;
36359;SDS011;22388;52.432;20.662;2024-01-11T09:36:22;83.88;;;28.65;;
36359;SDS011;22388;52.432;20.662;2024-01-11T09:38:47;83.70;;;27.75;;
36359;SDS011;22388;52.432;20.662;2024-01-11T09:41:13;93.72;;;28.40;;
36359;SDS011;22388;52.432;20.662;2024-01-11T09:43:40;80.68;;;27.45;;
36359;SDS011;22388;52.432;20.662;2024-01-11T09:46:06;78.88;;;26.20;;
36359;SDS011;22388;52.432;20.662;2024-01-11T09:48:34;86.07;;;27.83;;
36359;SDS011;22388;52.432;20.662;2024-01-11T09:51:01;84.68;;;27.83;;
36359;SDS011;22388;52.432;20.662;2024-01-11T09:53:26;89.93;;;27.83;;
36359;SDS011;22388;52.432;20.662;2024-01-11T09:55:53;99.07;;;29.80;;
36359;SDS011;22388;52.432;20.662;2024-01-11T09:58:19;91.55;;;30.35;;
36359;SDS011;22388;52.432;20.662;2024-01-11T10:00:45;92.00;;;30.33;;
36359;SDS011;22388;52.432;20.662;2024-01-11T10:03:10;91.40;;;30.13;;
36359;SDS011;22388;52.432;20.662;2024-01-11T10:05:36;93.80;;;32.00;;
36359;SDS011;22388;52.432;20.662;2024-01-11T10:08:01;98.95;;;32.83;;
36359;SDS011;22388;52.432;20.662;2024-01-11T10:10:27;105.05;;;34.70;;
36359;SDS011;22388;52.432;20.662;2024-01-11T10:12:53;109.95;;;36.90;;
36359;SDS011;22388;52.432;20.662;2024-01-11T10:15:21;116.68;;;40.70;;
36359;SDS011;22388;52.432;20.662;2024-01-11T10:17:49;132.70;;;39.75;;
36359;SDS011;22388;52.432;20.662;2024-01-11T10:20:15;121.78;;;37.38;;
36359;SDS011;22388;52.432;20.662;2024-01-11T10:22:40;129.77;;;39.58;;
36359;SDS011;22388;52.432;20.662;2024-01-11T10:25:13;114.07;;;38.60;;
36359;SDS011;22388;52.432;20.662;2024-01-11T10:27:42;134.55;;;37.95;;
36359;SDS011;22388;52.432;20.662;2024-01-11T10:30:08;125.40;;;39.03;;
36359;SDS011;22388;52.432;20.662;2024-01-11T10:32:34;123.88;;;37.05;;
36359;SDS011;22388;52.432;20.662;2024-01-11T10:35:00;128.65;;;40.75;;
36359;SDS011;22388;52.432;20.662;2024-01-11T10:37:27;129.65;;;42.15;;
36359;SDS011;22388;52.432;20.662;2024-01-11T10:39:53;140.38;;;37.90;;
36359;SDS011;22388;52.432;20.662;2024-01-11T10:42:20;136.63;;;41.65;;
36359;SDS011;22388;52.432;20.662;2024-01-11T10:44:49;139.27;;;44.15;;
36359;SDS011;22388;52.432;20.662;2024-01-11T10:47:17;137.60;;;44.88;;
36359;SDS011;22388;52.432;20.662;2024-01-11T10:49:43;133.80;;;42.85;;
36359;SDS011;22388;52.432;20.662;2024-01-11T10:52:09;151.30;;;45.15;;
36359;SDS011;22388;52.432;20.662;2024-01-11T10:54:37;144.18;;;43.05;;
36359;SDS011;22388;52.432;20.662;2024-01-11T10:57:03;141.82;;;43.22;;
36359;SDS011;22388;52.432;20.662;2024-01-11T10:59:31;135.93;;;41.05;;
36359;SDS011;22388;52.432;20.662;2024-01-11T11:01:57;132.45;;;42.75;;
36359;SDS011;22388;52.432;20.662;2024-01-11T11:04:24;136.88;;;42.25;;
36359;SDS011;22388;52.432;20.662;2024-01-11T11:06:54;127.93;;;37.85;;
36359;SDS011;22388;52.432;20.662;2024-01-11T11:09:20;123.43;;;37.25;;
36359;SDS011;22388;52.432;20.662;2024-01-11T11:11:46;116.35;;;37.95;;
36359;SDS011;22388;52.432;20.662;2024-01-11T11:14:15;113.03;;;37.47;;
36359;SDS011;22388;52.432;20.662;2024-01-11T11:16:41;133.15;;;40.00;;
36359;SDS011;22388;52.432;20.662;2024-01-11T11:19:06;134.48;;;41.72;;
36359;SDS011;22388;52.432;20.662;2024-01-11T11:21:41;132.20;;;38.53;;
36359;SDS011;22388;52.432;20.662;2024-01-11T11:24:08;138.82;;;42.22;;
36359;SDS011;22388;52.432;20.662;2024-01-11T11:26:34;127.78;;;40.95;;
36359;SDS011;22388;52.432;20.662;2024-01-11T11:29:05;123.38;;;38.90;;
36359;SDS011;22388;52.432;20.662;2024-01-11T11:31:41;127.72;;;41.13;;
36359;SDS011;22388;52.432;20.662;2024-01-11T11:34:07;127.28;;;38.40;;
36359;SDS011;22388;52.432;20.662;2024-01-11T11:36:35;138.35;;;42.47;;
36359;SDS011;22388;52.432;20.662;2024-01-11T11:39:03;124.75;;;43.17;;
36359;SDS011;22388;52.432;20.662;2024-01-11T11:41:32;122.35;;;42.33;;
36359;SDS011;22388;52.432;20.662;2024-01-11T11:44:01;135.60;;;42.80;;
36359;SDS011;22388;52.432;20.662;2024-01-11T11:46:34;139.25;;;41.50;;
36359;SDS011;22388;52.432;20.662;2024-01-11T11:49:00;128.77;;;38.35;;
36359;SDS011;22388;52.432;20.662;2024-01-11T11:51:27;130.63;;;41.05;;
36359;SDS011;22388;52.432;20.662;2024-01-11T11:53:55;128.02;;;42.35;;
36359;SDS011;22388;52.432;20.662;2024-01-11T11:56:22;137.43;;;41.92;;
36359;SDS011;22388;52.432;20.662;2024-01-11T11:58:50;131.63;;;44.25;;
36359;SDS011;22388;52.432;20.662;2024-01-11T12:01:18;146.75;;;45.63;;
36359;SDS011;22388;52.432;20.662;2024-01-11T12:03:44;126.22;;;44.47;;
36359;SDS011;22388;52.432;20.662;2024-01-11T12:06:17;134.90;;;44.00;;
36359;SDS011;22388;52.432;20.662;2024-01-11T12:08:42;142.13;;;47.08;;
36359;SDS011;22388;52.432;20.662;2024-01-11T12:11:08;137.70;;;42.80;;
36359;SDS011;22388;52.432;20.662;2024-01-11T12:13:34;124.57;;;43.72;;
36359;SDS011;22388;52.432;20.662;2024-01-11T12:16:02;131.77;;;42.33;;
36359;SDS011;22388;52.432;20.662;2024-01-11T12:18:27;142.68;;;45.40;;
36359;SDS011;22388;52.432;20.662;2024-01-11T12:20:52;129.48;;;45.90;;
36359;SDS011;22388;52.432;20.662;2024-01-11T12:23:18;133.77;;;42.65;;
36359;SDS011;22388;52.432;20.662;2024-01-11T12:25:44;137.27;;;44.28;;
36359;SDS011;22388;52.432;20.662;2024-01-11T12:28:10;118.47;;;42.75;;
36359;SDS011;22388;52.432;20.662;2024-01-11T12:30:35;130.40;;;43.00;;
36359;SDS011;22388;52.432;20.662;2024-01-11T12:33:01;130.95;;;46.03;;
36359;SDS011;22388;52.432;20.662;2024-01-11T12:35:27;130.77;;;46.83;;
36359;SDS011;22388;52.432;20.662;2024-01-11T12:37:59;142.85;;;48.92;;
36359;SDS011;22388;52.432;20.662;2024-01-11T12:42:52;127.32;;;50.03;;
36359;SDS011;22388;52.432;20.662;2024-01-11T12:45:17;137.98;;;51.38;;
36359;SDS011;22388;52.432;20.662;2024-01-11T12:47:43;138.50;;;49.20;;
36359;SDS011;22388;52.432;20.662;2024-01-11T12:50:09;135.43;;;52.75;;
36359;SDS011;22388;52.432;20.662;2024-01-11T12:52:34;145.82;;;54.35;;
36359;SDS011;22388;52.432;20.662;2024-01-11T12:55:00;146.77;;;55.05;;
36359;SDS011;22388;52.432;20.662;2024-01-11T12:57:25;133.25;;;47.88;;
36359;SDS011;22388;52.432;20.662;2024-01-11T12:59:52;125.57;;;43.60;;
36359;SDS011;22388;52.432;20.662;2024-01-11T13:02:17;123.43;;;44.50;;
36359;SDS011;22388;52.432;20.662;2024-01-11T13:04:43;118.32;;;42.28;;
36359;SDS011;22388;52.432;20.662;2024-01-11T13:07:10;109.22;;;40.47;;
36359;SDS011;22388;52.432;20.662;2024-01-11T13:09:36;112.18;;;39.45;;
36359;SDS011;22388;52.432;20.662;2024-01-11T13:12:01;127.60;;;40.97;;
36359;SDS011;22388;52.432;20.662;2024-01-11T13:14:28;114.82;;;42.22;;
36359;SDS011;22388;52.432;20.662;2024-01-11T13:16:54;117.45;;;44.70;;
36359;SDS011;22388;52.432;20.662;2024-01-11T13:19:19;98.93;;;40.65;;
36359;SDS011;22388;52.432;20.662;2024-01-11T13:21:45;96.75;;;39.08;;
36359;SDS011;22388;52.432;20.662;2024-01-11T13:24:10;61.10;;;29.52;;
36359;SDS011;22388;52.432;20.662;2024-01-11T13:26:38;54.22;;;27.00;;
36359;SDS011;22388;52.432;20.662;2024-01-11T13:29:04;48.45;;;25.38;;
36359;SDS011;22388;52.432;20.662;2024-01-11T13:31:29;48.45;;;25.27;;
36359;SDS011;22388;52.432;20.662;2024-01-11T13:33:55;47.60;;;24.45;;
36359;SDS011;22388;52.432;20.662;2024-01-11T13:36:22;46.13;;;23.55;;
36359;SDS011;22388;52.432;20.662;2024-01-11T13:38:47;43.35;;;21.40;;
36359;SDS011;22388;52.432;20.662;2024-01-11T13:41:12;40.05;;;22.33;;
36359;SDS011;22388;52.432;20.662;2024-01-11T13:43:38;41.65;;;22.60;;
36359;SDS011;22388;52.432;20.662;2024-01-11T13:46:03;44.17;;;22.25;;
36359;SDS011;22388;52.432;20.662;2024-01-11T13:48:30;48.92;;;23.67;;
36359;SDS011;22388;52.432;20.662;2024-01-11T13:50:57;45.35;;;24.60;;
36359;SDS011;22388;52.432;20.662;2024-01-11T13:53:22;40.95;;;22.60;;
36359;SDS011;22388;52.432;20.662;2024-01-11T13:55:47;40.15;;;22.35;;